createdAt,value
2022-09-07T00:02:01.870Z,99.90
2022-09-07T00:04:28.579Z,99.90
2022-09-07T00:06:55.345Z,99.90
2022-09-07T00:09:22.017Z,99.90
2022-09-07T00:11:48.700Z,99.90
2022-09-07T00:14:15.380Z,99.90
2022-09-07T00:16:42.226Z,99.90
2022-09-07T00:19:08.960Z,99.90
2022-09-07T00:21:36.410Z,99.90
2022-09-07T00:24:03.348Z,99.90
2022-09-07T00:26:31.578Z,99.90
2022-09-07T00:29:00.448Z,99.90
2022-09-07T00:31:28.716Z,99.90
2022-09-07T00:33:58.904Z,99.90
2022-09-07T00:36:25.577Z,99.90
2022-09-07T00:38:52.231Z,99.90
2022-09-07T00:41:20.608Z,99.90
2022-09-07T00:43:56.527Z,99.90
2022-09-07T00:46:27.727Z,99.90
2022-09-07T00:49:11.871Z,99.90
2022-09-07T00:51:47.646Z,99.90
2022-09-07T00:54:21.455Z,99.90
2022-09-07T00:56:49.891Z,99.90
2022-09-07T00:59:20.148Z,99.90
2022-09-07T01:01:46.887Z,99.90
2022-09-07T01:04:14.817Z,99.90
2022-09-07T01:06:43.325Z,99.90
2022-09-07T01:09:12.597Z,99.90
2022-09-07T01:11:40.072Z,99.90
2022-09-07T01:14:09.415Z,99.90
2022-09-07T01:16:41.890Z,99.90
2022-09-07T01:19:26.761Z,99.90
2022-09-07T01:22:22.873Z,99.90
2022-09-07T01:25:13.237Z,99.90
2022-09-07T01:27:49.162Z,99.90
2022-09-07T01:30:19.407Z,99.90
2022-09-07T01:33:10.388Z,99.90
2022-09-07T01:35:45.129Z,99.90
2022-09-07T01:38:21.681Z,99.90
2022-09-07T01:41:09.644Z,99.90
2022-09-07T01:43:48.306Z,99.90
2022-09-07T01:46:28.214Z,99.90
2022-09-07T01:49:03.695Z,99.90
2022-09-07T01:51:34.578Z,99.90
2022-09-07T01:54:22.909Z,99.90
2022-09-07T01:56:53.162Z,99.90
2022-09-07T01:59:43.915Z,99.90
2022-09-07T02:02:19.482Z,99.90
2022-09-07T02:04:54.150Z,99.90
2022-09-07T02:07:50.983Z,99.90
2022-09-07T02:10:25.634Z,99.90
2022-09-07T02:12:59.858Z,99.90
2022-09-07T02:15:42.858Z,99.90
2022-09-07T02:18:13.686Z,99.90
2022-09-07T02:20:44.907Z,99.90
2022-09-07T02:23:34.921Z,99.90
2022-09-07T02:26:06.926Z,99.90
2022-09-07T02:28:36.518Z,99.90
2022-09-07T02:31:06.601Z,99.90
2022-09-07T02:33:33.726Z,99.90
2022-09-07T02:36:01.669Z,99.90
2022-09-07T02:38:28.475Z,99.90
2022-09-07T02:40:58.033Z,99.90
2022-09-07T02:43:25.823Z,99.90
2022-09-07T02:46:11.295Z,99.90
2022-09-07T02:48:40.951Z,99.90
2022-09-07T02:51:14.757Z,99.90
2022-09-07T02:53:41.396Z,99.90
2022-09-07T02:56:26.538Z,99.90
2022-09-07T02:59:48.263Z,99.90
2022-09-07T03:02:43.165Z,99.90
2022-09-07T03:05:31.976Z,99.90
2022-09-07T03:08:11.254Z,99.90
2022-09-07T03:10:40.361Z,99.90
2022-09-07T03:13:07.069Z,99.90
2022-09-07T03:15:33.934Z,99.90
2022-09-07T03:18:00.651Z,99.90
2022-09-07T03:20:27.353Z,99.90
2022-09-07T03:22:54.026Z,99.90
2022-09-07T03:25:20.741Z,99.90
2022-09-07T03:27:47.611Z,99.90
2022-09-07T03:30:14.552Z,99.90
2022-09-07T03:32:41.232Z,99.90
2022-09-07T03:35:08.514Z,99.90
2022-09-07T03:37:38.911Z,99.90
2022-09-07T03:40:09.098Z,99.90
2022-09-07T03:42:36.690Z,99.90
2022-09-07T03:45:04.672Z,99.90
2022-09-07T03:47:31.355Z,99.90
2022-09-07T03:49:58.017Z,99.90
2022-09-07T03:52:24.656Z,99.90
2022-09-07T03:54:51.318Z,99.90
2022-09-07T03:57:20.207Z,99.90
2022-09-07T03:59:47.213Z,99.90
2022-09-07T04:02:14.230Z,99.90
2022-09-07T04:04:42.615Z,99.90
2022-09-07T04:07:09.824Z,99.90
2022-09-07T04:09:36.493Z,99.90
2022-09-07T04:12:03.522Z,99.90
2022-09-07T04:14:30.182Z,99.90
2022-09-07T04:16:56.914Z,99.90
2022-09-07T04:19:23.860Z,99.90
2022-09-07T04:21:50.610Z,99.90
2022-09-07T04:24:18.352Z,99.90
2022-09-07T04:26:45.410Z,99.90
2022-09-07T04:29:13.073Z,99.90
2022-09-07T04:31:39.989Z,99.90
2022-09-07T04:34:07.259Z,99.90
2022-09-07T04:36:34.862Z,99.90
2022-09-07T04:39:04.818Z,99.90
2022-09-07T04:41:33.178Z,99.90
2022-09-07T04:44:01.956Z,99.90
2022-09-07T04:46:33.824Z,99.90
2022-09-07T04:49:06.296Z,99.90
2022-09-07T04:51:33.766Z,99.90
2022-09-07T04:54:02.335Z,99.90
2022-09-07T04:56:29.874Z,99.90
2022-09-07T04:58:56.817Z,99.90
2022-09-07T05:01:26.133Z,99.90
2022-09-07T05:03:53.157Z,99.90
2022-09-07T05:06:22.502Z,99.90
2022-09-07T05:08:51.995Z,99.90
2022-09-07T05:11:23.917Z,99.90
2022-09-07T05:13:56.903Z,99.90
2022-09-07T05:16:26.277Z,99.90
2022-09-07T05:18:55.828Z,99.90
2022-09-07T05:21:25.369Z,99.90
2022-09-07T05:23:54.373Z,99.90
2022-09-07T05:26:23.172Z,99.90
2022-09-07T05:28:50.392Z,99.90
2022-09-07T05:31:19.559Z,99.90
2022-09-07T05:36:46.436Z,99.90
2022-09-07T05:39:13.106Z,99.90
2022-09-07T05:41:39.855Z,99.90
2022-09-07T05:46:53.570Z,99.90
2022-09-07T05:49:20.243Z,99.90
2022-09-07T05:51:48.250Z,99.90
2022-09-07T05:54:14.941Z,99.90
2022-09-07T05:56:41.594Z,99.90
2022-09-07T05:59:08.344Z,99.90
2022-09-07T06:01:35.868Z,99.90
2022-09-07T06:04:02.973Z,99.90
2022-09-07T06:06:29.883Z,99.90
2022-09-07T06:08:57.672Z,99.90
2022-09-07T06:11:26.203Z,99.90
2022-09-07T06:13:53.126Z,99.90
2022-09-07T06:16:20.648Z,99.90
2022-09-07T06:18:49.499Z,99.90
2022-09-07T06:21:19.242Z,99.90
2022-09-07T06:23:47.304Z,99.90
2022-09-07T06:26:15.193Z,99.90
2022-09-07T06:28:49.613Z,99.90
2022-09-07T06:31:19.550Z,99.90
2022-09-07T06:33:50.460Z,99.90
2022-09-07T06:36:19.800Z,99.90
2022-09-07T06:38:47.683Z,99.90
2022-09-07T06:44:07.274Z,99.90
2022-09-07T06:49:20.619Z,99.90
2022-09-07T06:51:47.503Z,99.90
2022-09-07T06:57:07.913Z,99.90
2022-09-07T06:59:35.229Z,99.90
2022-09-07T07:02:02.179Z,99.90
2022-09-07T07:04:28.856Z,99.90
2022-09-07T07:06:55.531Z,99.90
2022-09-07T07:09:22.253Z,99.90
2022-09-07T07:11:49.078Z,99.90
2022-09-07T07:14:16.682Z,99.90
2022-09-07T07:16:43.768Z,99.90
2022-09-07T07:19:10.531Z,99.90
2022-09-07T07:22:01.994Z,99.90
2022-09-07T07:24:23.852Z,99.90
2022-09-07T07:26:50.617Z,99.90
2022-09-07T07:29:18.906Z,99.90
2022-09-07T07:31:47.145Z,99.90
2022-09-07T07:34:15.122Z,99.90
2022-09-07T07:36:41.908Z,99.90
2022-09-07T07:41:58.721Z,99.90
2022-09-07T07:44:28.373Z,99.90
2022-09-07T07:46:55.065Z,99.90
2022-09-07T07:49:21.871Z,99.90
2022-09-07T07:54:37.913Z,99.90
2022-09-07T07:57:05.771Z,99.90
2022-09-07T07:59:32.572Z,99.90
2022-09-07T08:02:04.419Z,99.90
2022-09-07T08:04:35.808Z,99.40
2022-09-07T08:07:08.710Z,98.60
2022-09-07T08:09:37.243Z,97.20
2022-09-07T08:12:04.036Z,97.00
2022-09-07T08:14:30.683Z,96.80
2022-09-07T08:16:57.291Z,95.80
2022-09-07T08:19:23.923Z,95.10
2022-09-07T08:21:50.526Z,94.10
2022-09-07T08:24:17.142Z,92.90
2022-09-07T08:26:43.796Z,90.00
2022-09-07T08:29:10.407Z,90.00
2022-09-07T08:31:37.559Z,89.00
2022-09-07T08:34:04.265Z,88.80
2022-09-07T08:36:31.888Z,85.20
2022-09-07T08:38:58.542Z,86.40
2022-09-07T08:41:55.315Z,85.90
2022-09-07T08:44:31.776Z,87.60
2022-09-07T08:47:29.320Z,86.40
2022-09-07T08:50:11.836Z,87.50
2022-09-07T08:52:48.088Z,83.90
2022-09-07T08:55:46.721Z,84.90
2022-09-07T08:58:45.280Z,87.50
2022-09-07T09:04:16.645Z,84.90
2022-09-07T09:07:02.643Z,90.40
2022-09-07T09:09:45.377Z,89.40
2022-09-07T09:12:37.698Z,90.10
2022-09-07T09:15:17.560Z,90.40
2022-09-07T09:17:59.606Z,93.60
2022-09-07T09:20:46.172Z,93.90
2022-09-07T09:23:16.329Z,93.80
2022-09-07T09:25:56.372Z,94.90
2022-09-07T09:28:25.503Z,97.50
2022-09-07T09:30:54.659Z,97.30
2022-09-07T09:33:25.814Z,98.10
2022-09-07T09:35:54.882Z,96.20
2022-09-07T09:38:33.901Z,97.90
2022-09-07T09:41:14.864Z,99.80
2022-09-07T09:43:54.687Z,97.40
2022-09-07T09:46:28.473Z,98.40
2022-09-07T09:48:59.196Z,99.90
2022-09-07T09:54:36.289Z,98.80
2022-09-07T09:57:03.776Z,99.90
2022-09-07T10:05:35.902Z,99.90
2022-09-07T10:08:06.265Z,99.90
2022-09-07T10:10:32.923Z,99.20
2022-09-07T10:12:59.815Z,97.80
2022-09-07T10:15:40.139Z,98.60
2022-09-07T10:18:15.598Z,99.10
2022-09-07T10:20:42.231Z,98.50
2022-09-07T10:23:21.037Z,99.90
2022-09-07T10:25:47.714Z,98.00
2022-09-07T10:28:23.902Z,98.70
2022-09-07T10:31:02.905Z,98.70
2022-09-07T10:36:57.138Z,99.10
2022-09-07T10:39:27.926Z,98.80
2022-09-07T10:42:09.903Z,96.40
2022-09-07T10:44:45.447Z,96.20
2022-09-07T10:47:30.576Z,96.60
2022-09-07T10:53:39.014Z,98.40
2022-09-07T10:56:09.568Z,94.80
2022-09-07T10:59:03.918Z,95.30
2022-09-07T11:01:49.788Z,96.80
2022-09-07T11:04:31.664Z,95.90
2022-09-07T11:07:17.114Z,93.70
2022-09-07T11:09:58.735Z,95.10
2022-09-07T11:12:32.120Z,94.80
2022-09-07T11:15:29.563Z,96.90
2022-09-07T11:18:03.223Z,94.80
2022-09-07T11:20:44.948Z,94.80
2022-09-07T11:23:17.217Z,96.10
2022-09-07T11:26:07.425Z,93.70
2022-09-07T11:31:44.832Z,92.10
2022-09-07T11:34:33.201Z,92.40
2022-09-07T11:37:18.711Z,93.10
2022-09-07T11:39:52.614Z,93.70
2022-09-07T11:42:43.491Z,95.10
2022-09-07T11:45:28.254Z,94.80
2022-09-07T11:48:30.358Z,95.90
2022-09-07T11:51:03.373Z,97.90
2022-09-07T11:53:35.717Z,94.90
2022-09-07T11:56:20.418Z,96.90
2022-09-07T11:59:08.180Z,97.60
2022-09-07T12:01:48.773Z,94.70
2022-09-07T12:04:29.363Z,95.00
2022-09-07T12:07:17.654Z,96.40
2022-09-07T12:10:06.430Z,95.70
2022-09-07T12:13:15.330Z,95.80
2022-09-07T12:15:52.459Z,98.60
2022-09-07T12:18:54.091Z,94.40
2022-09-07T12:21:40.445Z,95.10
2022-09-07T12:24:33.366Z,95.50
2022-09-07T12:27:10.913Z,95.70
2022-09-07T12:29:38.299Z,94.10
2022-09-07T12:32:53.468Z,94.00
2022-09-07T12:34:55.860Z,93.60
2022-09-07T12:37:35.995Z,93.80
2022-09-07T12:40:30.599Z,95.10
2022-09-07T12:43:12.557Z,91.70
2022-09-07T12:45:39.211Z,90.80
2022-09-07T12:48:14.539Z,91.30
2022-09-07T12:50:42.446Z,92.00
2022-09-07T12:53:26.439Z,90.10
2022-09-07T12:56:16.023Z,90.20
2022-09-07T12:59:16.043Z,90.60
2022-09-07T13:02:16.287Z,90.60
2022-09-07T13:04:49.956Z,84.30
2022-09-07T13:07:32.974Z,86.00
2022-09-07T13:10:36.324Z,86.80
2022-09-07T13:16:14.592Z,86.40
2022-09-07T13:18:43.662Z,86.10
2022-09-07T13:21:11.812Z,85.40
2022-09-07T13:23:43.240Z,86.80
2022-09-07T13:26:13.517Z,87.70
2022-09-07T13:28:58.317Z,89.50
2022-09-07T13:31:37.104Z,89.60
2022-09-07T13:34:29.540Z,89.40
2022-09-07T13:36:57.062Z,89.30
2022-09-07T13:39:24.240Z,89.60
2022-09-07T13:41:54.291Z,90.70
2022-09-07T13:44:29.713Z,91.20
2022-09-07T13:47:05.003Z,91.10
2022-09-07T13:49:46.992Z,91.40
2022-09-07T13:52:23.614Z,91.50
2022-09-07T13:55:08.444Z,91.20
2022-09-07T13:58:04.633Z,91.40
2022-09-07T14:00:31.502Z,92.10
2022-09-07T14:03:06.438Z,92.20
2022-09-07T14:05:33.464Z,92.30
2022-09-07T14:08:00.119Z,91.30
2022-09-07T14:10:26.819Z,92.40
2022-09-07T14:13:11.821Z,91.90
2022-09-07T14:15:47.191Z,92.00
2022-09-07T14:18:25.729Z,91.80
2022-09-07T14:20:53.444Z,92.80
2022-09-07T14:23:29.896Z,91.40
2022-09-07T14:26:17.959Z,91.90
2022-09-07T14:28:47.237Z,90.50
2022-09-07T14:31:16.788Z,83.60
2022-09-07T14:34:03.819Z,82.40
2022-09-07T14:36:45.864Z,83.00
2022-09-07T14:39:15.874Z,83.60
2022-09-07T14:41:43.361Z,85.50
2022-09-07T14:44:30.666Z,84.10
2022-09-07T14:47:00.487Z,83.30
2022-09-07T14:49:28.738Z,83.60
2022-09-07T14:51:55.845Z,85.10
2022-09-07T14:54:34.169Z,86.90
2022-09-07T14:57:05.258Z,84.30
2022-09-07T14:59:41.528Z,85.50
2022-09-07T15:02:22.052Z,88.80
2022-09-07T15:05:10.475Z,88.30
2022-09-07T15:07:52.349Z,84.50
2022-09-07T15:10:23.112Z,84.10
2022-09-07T15:12:55.278Z,84.90
2022-09-07T15:15:37.408Z,84.90
2022-09-07T15:18:25.703Z,87.00
2022-09-07T15:20:52.990Z,88.90
2022-09-07T15:23:20.145Z,90.60
2022-09-07T15:25:53.468Z,90.70
2022-09-07T15:34:11.276Z,91.00
2022-09-07T15:36:40.802Z,91.70
2022-09-07T15:39:14.177Z,90.50
2022-09-07T15:41:40.760Z,90.10
2022-09-07T15:44:09.035Z,91.30
2022-09-07T15:46:37.128Z,89.80
2022-09-07T15:49:03.986Z,90.00
2022-09-07T15:54:17.415Z,90.00
2022-09-07T15:57:48.037Z,89.80
2022-09-07T15:59:31.135Z,91.00
2022-09-07T16:01:58.631Z,90.20
2022-09-07T16:04:25.589Z,90.80
2022-09-07T16:06:52.310Z,91.90
2022-09-07T16:09:21.854Z,92.50
2022-09-07T16:11:51.220Z,92.80
2022-09-07T16:14:18.160Z,92.30
2022-09-07T16:19:34.973Z,92.60
2022-09-07T16:22:03.114Z,93.00
2022-09-07T16:24:29.876Z,93.90
2022-09-07T16:26:56.660Z,94.00
2022-09-07T16:29:23.383Z,94.10
2022-09-07T16:34:36.861Z,94.40
2022-09-07T16:37:03.836Z,94.50
2022-09-07T16:39:30.766Z,93.70
2022-09-07T16:42:00.057Z,93.70
2022-09-07T16:44:26.848Z,92.60
2022-09-07T16:46:53.546Z,93.30
2022-09-07T16:49:20.317Z,93.60
2022-09-07T16:51:47.047Z,93.90
2022-09-07T16:54:15.705Z,93.90
2022-09-07T16:56:42.320Z,94.10
2022-09-07T16:59:15.884Z,94.50
2022-09-07T17:01:42.683Z,94.40
2022-09-07T17:04:11.314Z,95.10
2022-09-07T17:06:39.441Z,95.50
2022-09-07T17:09:06.589Z,96.40
2022-09-07T17:11:35.276Z,97.60
2022-09-07T17:14:05.153Z,98.30
2022-09-07T17:16:34.086Z,99.30
2022-09-07T17:21:53.749Z,99.90
2022-09-07T17:24:20.872Z,99.90
2022-09-07T17:26:47.798Z,99.90
2022-09-07T17:29:14.756Z,99.90
2022-09-07T17:34:29.765Z,99.90
2022-09-07T17:36:56.502Z,99.90
2022-09-07T17:39:23.494Z,99.90
2022-09-07T17:41:54.351Z,99.90
2022-09-07T17:44:23.194Z,99.90
2022-09-07T17:46:50.125Z,99.90
2022-09-07T17:49:17.662Z,99.90
2022-09-07T17:51:45.301Z,99.90
2022-09-07T17:54:14.918Z,99.90
2022-09-07T17:56:42.162Z,99.90
2022-09-07T18:01:56.521Z,99.90
2022-09-07T18:04:23.934Z,99.90
2022-09-07T18:06:51.221Z,99.90
2022-09-07T18:09:19.549Z,99.90
2022-09-07T18:11:48.095Z,99.90
2022-09-07T18:14:15.548Z,99.90
2022-09-07T18:16:43.455Z,99.90
2022-09-07T18:19:11.190Z,99.90
2022-09-07T18:21:39.355Z,99.90
2022-09-07T18:24:13.583Z,99.90
2022-09-07T18:26:41.032Z,99.90
2022-09-07T18:29:19.252Z,99.90
2022-09-07T18:31:54.596Z,99.90
2022-09-07T18:34:21.239Z,99.90
2022-09-07T18:36:48.051Z,99.90
2022-09-07T18:39:15.062Z,99.90
2022-09-07T18:41:42.167Z,99.90
2022-09-07T18:46:55.975Z,99.90
2022-09-07T18:49:22.684Z,99.90
2022-09-07T18:54:35.978Z,99.90
2022-09-07T18:57:02.608Z,99.90
2022-09-07T18:59:29.743Z,99.90
2022-09-07T19:02:01.545Z,99.90
2022-09-07T19:05:49.795Z,99.90
2022-09-07T19:07:17.531Z,99.90
2022-09-07T19:09:44.186Z,99.90
2022-09-07T19:12:10.836Z,99.90
2022-09-07T19:14:37.620Z,99.90
2022-09-07T19:17:04.324Z,99.90
2022-09-07T19:19:30.986Z,99.90
2022-09-07T19:21:58.230Z,99.90
2022-09-07T19:24:25.720Z,99.90
2022-09-07T19:26:55.720Z,99.90
2022-09-07T19:29:25.163Z,99.90
2022-09-07T19:32:06.590Z,99.90
2022-09-07T19:34:41.897Z,99.90
2022-09-07T19:37:11.286Z,99.90
2022-09-07T19:39:38.312Z,99.90
2022-09-07T19:42:06.424Z,99.90
2022-09-07T19:44:33.399Z,99.90
2022-09-07T19:47:00.811Z,99.90
2022-09-07T19:49:28.129Z,99.90
2022-09-07T19:51:54.934Z,99.90
2022-09-07T19:54:21.745Z,99.90
2022-09-07T19:56:48.426Z,99.90
2022-09-07T19:59:15.200Z,99.90
2022-09-07T20:01:46.052Z,99.90
2022-09-07T20:04:20.411Z,99.90
2022-09-07T20:06:49.985Z,99.90
2022-09-07T20:09:18.625Z,99.90
2022-09-07T20:11:47.383Z,99.90
2022-09-07T20:14:15.984Z,99.90
2022-09-07T20:16:42.981Z,99.90
2022-09-07T20:19:12.149Z,99.90
2022-09-07T20:21:38.843Z,99.90
2022-09-07T20:24:05.813Z,99.90
2022-09-07T20:26:32.751Z,99.90
2022-09-07T20:29:23.369Z,99.90
2022-09-07T20:31:46.715Z,99.90
2022-09-07T20:34:13.940Z,99.90
2022-09-07T20:36:40.709Z,99.90
2022-09-07T20:39:07.478Z,99.90
2022-09-07T20:41:34.518Z,99.90
2022-09-07T20:44:02.684Z,99.90
2022-09-07T20:46:30.327Z,99.90
2022-09-07T20:48:57.614Z,99.90
2022-09-07T20:51:24.393Z,99.90
2022-09-07T20:53:51.480Z,99.90
2022-09-07T20:56:27.352Z,99.90
2022-09-07T20:58:56.139Z,99.90
2022-09-07T21:01:23.133Z,99.90
2022-09-07T21:03:52.486Z,99.90
2022-09-07T21:06:20.577Z,99.90
2022-09-07T21:08:48.337Z,99.90
2022-09-07T21:11:26.852Z,99.90
2022-09-07T21:14:12.231Z,99.90
2022-09-07T21:16:40.350Z,99.90
2022-09-07T21:19:09.043Z,99.90
2022-09-07T21:21:41.761Z,99.90
2022-09-07T21:24:20.641Z,99.90
2022-09-07T21:26:48.621Z,99.90
2022-09-07T21:29:18.541Z,99.90
2022-09-07T21:31:45.611Z,99.90
2022-09-07T21:34:12.653Z,99.90
2022-09-07T21:36:39.457Z,99.90
2022-09-07T21:39:07.652Z,99.90
2022-09-07T21:41:36.139Z,99.90
2022-09-07T21:44:04.026Z,99.90
2022-09-07T21:46:32.688Z,99.90
2022-09-07T21:49:00.113Z,99.90
2022-09-07T21:51:27.604Z,99.90
2022-09-07T21:53:56.289Z,99.90
2022-09-07T21:56:23.823Z,99.90
2022-09-07T21:58:55.315Z,99.90
2022-09-07T22:01:22.823Z,99.90
2022-09-07T22:03:55.105Z,99.90
2022-09-07T22:06:21.787Z,99.90
2022-09-07T22:08:48.806Z,99.90
2022-09-07T22:11:18.669Z,99.90
2022-09-07T22:13:45.770Z,99.90
2022-09-07T22:16:13.771Z,99.90
2022-09-07T22:18:44.409Z,99.90
2022-09-07T22:21:17.113Z,99.90
2022-09-07T22:23:46.965Z,99.90
2022-09-07T22:26:15.774Z,99.90
2022-09-07T22:28:43.282Z,99.90
2022-09-07T22:31:13.130Z,99.90
2022-09-07T22:33:40.993Z,99.90
2022-09-07T22:36:13.844Z,99.90
2022-09-07T22:38:41.620Z,99.90
2022-09-07T22:41:16.178Z,99.90
2022-09-07T22:43:44.228Z,99.90
2022-09-07T22:46:12.075Z,99.90
2022-09-07T22:48:40.237Z,99.90
2022-09-07T22:51:07.634Z,99.90
2022-09-07T22:53:36.514Z,99.90
2022-09-07T22:56:08.846Z,99.90
2022-09-07T22:58:35.635Z,99.90
2022-09-07T23:01:02.325Z,99.90
2022-09-07T23:03:29.553Z,99.90
2022-09-07T23:05:57.067Z,99.90
2022-09-07T23:08:25.934Z,99.90
2022-09-07T23:10:53.286Z,99.90
2022-09-07T23:13:20.595Z,99.90
2022-09-07T23:15:48.063Z,99.90
2022-09-07T23:18:19.859Z,99.90
2022-09-07T23:20:46.744Z,99.90
2022-09-07T23:23:13.580Z,99.90
2022-09-07T23:25:41.837Z,99.90
2022-09-07T23:28:12.184Z,99.90
2022-09-07T23:30:42.111Z,99.90
2022-09-07T23:33:08.761Z,99.90
2022-09-07T23:35:35.635Z,99.90
2022-09-07T23:38:02.311Z,99.90
2022-09-07T23:40:30.418Z,99.90
2022-09-07T23:42:57.891Z,99.90
2022-09-07T23:45:25.022Z,99.90
2022-09-07T23:47:51.686Z,99.90
2022-09-07T23:50:18.738Z,99.90
2022-09-07T23:52:45.444Z,99.90
2022-09-07T23:55:12.139Z,99.90
2022-09-07T23:57:38.874Z,99.90
